createdAt,value
2022-11-13T00:00:05.848Z,5.69
2022-11-13T00:01:05.888Z,5.7
2022-11-13T00:02:06.018Z,5.7
2022-11-13T00:03:05.923Z,5.69
2022-11-13T00:04:05.851Z,5.74
2022-11-13T00:05:08.628Z,5.74
2022-11-13T00:06:05.861Z,5.69
2022-11-13T00:07:06.215Z,5.72
2022-11-13T00:08:05.888Z,5.67
2022-11-13T00:09:05.859Z,5.64
2022-11-13T00:10:05.857Z,5.67
2022-11-13T00:11:05.865Z,5.64
2022-11-13T00:12:05.875Z,5.73
2022-11-13T00:13:05.896Z,5.67
2022-11-13T00:14:05.867Z,5.59
2022-11-13T00:15:05.984Z,5.59
2022-11-13T00:16:08.922Z,5.61
2022-11-13T00:17:05.870Z,5.51
2022-11-13T00:18:07.007Z,5.46
2022-11-13T00:19:05.880Z,5.47
2022-11-13T00:20:05.871Z,5.46
2022-11-13T00:21:05.870Z,5.46
2022-11-13T00:22:05.890Z,5.59
2022-11-13T00:23:06.020Z,5.49
2022-11-13T00:24:05.890Z,5.47
2022-11-13T00:25:05.895Z,5.51
2022-11-13T00:26:05.930Z,5.51
2022-11-13T00:27:06.952Z,5.41
2022-11-13T00:28:05.929Z,5.49
2022-11-13T00:29:05.880Z,5.56
2022-11-13T00:30:05.878Z,5.46
2022-11-13T00:31:06.017Z,5.38
2022-11-13T00:32:05.887Z,5.4
2022-11-13T00:33:05.916Z,5.36
2022-11-13T00:34:55.053Z,5.33
2022-11-13T00:35:05.901Z,5.36
2022-11-13T00:36:05.891Z,5.36
2022-11-13T00:37:05.891Z,5.38
2022-11-13T00:38:08.793Z,5.46
2022-11-13T00:39:05.895Z,5.38
2022-11-13T00:40:05.968Z,5.56
2022-11-13T00:41:05.897Z,5.34
2022-11-13T00:42:05.908Z,5.37
2022-11-13T00:43:05.922Z,5.34
2022-11-13T00:44:05.940Z,5.36
2022-11-13T00:45:05.975Z,5.4
2022-11-13T00:46:05.921Z,5.36
2022-11-13T00:47:06.164Z,5.54
2022-11-13T00:48:05.969Z,5.38
2022-11-13T00:49:08.930Z,5.43
2022-11-13T00:50:06.025Z,5.38
2022-11-13T00:51:05.909Z,5.4
2022-11-13T00:52:05.931Z,5.44
2022-11-13T00:53:05.937Z,5.46
2022-11-13T00:54:06.070Z,5.44
2022-11-13T00:55:05.916Z,5.37
2022-11-13T00:56:05.919Z,5.54
2022-11-13T00:57:05.920Z,5.44
2022-11-13T00:58:06.080Z,5.44
2022-11-13T00:59:05.933Z,5.52
2022-11-13T01:00:09.034Z,5.56
2022-11-13T01:01:05.933Z,5.46
2022-11-13T01:02:06.067Z,5.47
2022-11-13T01:03:06.089Z,5.46
2022-11-13T01:04:05.934Z,5.52
2022-11-13T01:05:05.949Z,5.44
2022-11-13T01:06:06.059Z,5.52
2022-11-13T01:07:06.072Z,5.49
2022-11-13T01:08:05.964Z,5.47
2022-11-13T01:09:05.949Z,5.44
2022-11-13T01:10:06.067Z,5.52
2022-11-13T01:11:09.018Z,5.52
2022-11-13T01:12:05.953Z,5.43
2022-11-13T01:13:05.974Z,5.47
2022-11-13T01:14:05.961Z,5.44
2022-11-13T01:15:05.954Z,5.46
2022-11-13T01:16:05.968Z,5.49
2022-11-13T01:17:05.981Z,5.46
2022-11-13T01:18:06.006Z,5.44
2022-11-13T01:19:06.072Z,5.38
2022-11-13T01:20:05.957Z,5.41
2022-11-13T01:21:05.958Z,5.44
2022-11-13T01:22:06.170Z,5.4
2022-11-13T01:23:05.992Z,5.36
2022-11-13T01:24:05.959Z,5.54
2022-11-13T01:25:05.967Z,5.37
2022-11-13T01:26:06.102Z,5.34
2022-11-13T01:27:08.761Z,5.33
2022-11-13T01:28:06.004Z,5.38
2022-11-13T01:29:05.969Z,5.33
2022-11-13T01:30:05.993Z,5.23
2022-11-13T01:31:05.993Z,5.25
2022-11-13T01:32:05.973Z,5.29
2022-11-13T01:33:06.008Z,5.25
2022-11-13T01:34:05.992Z,5.31
2022-11-13T01:35:06.097Z,5.37
2022-11-13T01:36:05.983Z,5.26
2022-11-13T01:37:05.993Z,5.36
2022-11-13T01:38:06.140Z,5.37
2022-11-13T01:39:05.985Z,5.22
2022-11-13T01:40:06.147Z,5.34
2022-11-13T01:41:05.995Z,5.26
2022-11-13T01:42:06.117Z,5.29
2022-11-13T01:43:06.022Z,5.31
2022-11-13T01:44:06.030Z,5.28
2022-11-13T01:45:05.998Z,5.31
2022-11-13T01:46:06.025Z,5.23
2022-11-13T01:47:06.024Z,5.15
2022-11-13T01:48:06.034Z,5.22
2022-11-13T01:49:06.011Z,5.15
2022-11-13T01:50:06.019Z,5.15
2022-11-13T01:51:06.127Z,5.15
2022-11-13T01:52:06.038Z,5.23
2022-11-13T01:53:06.055Z,5.16
2022-11-13T01:54:08.891Z,5.18
2022-11-13T01:55:06.018Z,5.12
2022-11-13T01:56:06.023Z,5.18
2022-11-13T01:57:06.057Z,5.01
2022-11-13T01:58:06.193Z,4.94
2022-11-13T01:59:08.818Z,4.97
2022-11-13T02:00:06.030Z,4.95
2022-11-13T02:01:06.027Z,5
2022-11-13T02:02:06.278Z,4.92
2022-11-13T02:03:06.062Z,4.95
2022-11-13T02:04:08.763Z,5.05
2022-11-13T02:05:08.835Z,4.92
2022-11-13T02:06:06.031Z,4.9
2022-11-13T02:07:06.428Z,4.92
2022-11-13T02:08:06.093Z,4.74
2022-11-13T02:09:06.043Z,4.84
2022-11-13T02:10:07.237Z,4.84
2022-11-13T02:11:06.059Z,4.76
2022-11-13T02:12:06.041Z,4.76
2022-11-13T02:13:06.067Z,4.71
2022-11-13T02:14:06.169Z,4.64
2022-11-13T02:15:06.055Z,4.48
2022-11-13T02:16:09.149Z,4.5
2022-11-13T02:17:06.042Z,4.6
2022-11-13T02:18:06.138Z,4.66
2022-11-13T02:19:06.055Z,4.6
2022-11-13T02:20:06.051Z,4.6
2022-11-13T02:21:08.924Z,4.56
2022-11-13T02:22:06.094Z,4.6
2022-11-13T02:23:06.210Z,4.67
2022-11-13T02:24:06.210Z,4.63
2022-11-13T02:25:06.064Z,4.76
2022-11-13T02:26:06.237Z,4.68
2022-11-13T02:27:06.075Z,4.6
2022-11-13T02:28:06.186Z,4.68
2022-11-13T02:29:06.100Z,4.64
2022-11-13T02:30:07.476Z,4.61
2022-11-13T02:31:06.093Z,4.49
2022-11-13T02:32:08.984Z,4.57
2022-11-13T02:33:06.090Z,4.53
2022-11-13T02:34:06.079Z,4.53
2022-11-13T02:35:06.141Z,4.64
2022-11-13T02:36:06.103Z,4.53
2022-11-13T02:37:06.089Z,4.63
2022-11-13T02:38:06.143Z,4.58
2022-11-13T02:39:06.206Z,4.66
2022-11-13T02:40:06.110Z,4.61
2022-11-13T02:41:06.088Z,4.6
2022-11-13T02:42:06.218Z,4.6
2022-11-13T02:43:09.135Z,4.56
2022-11-13T02:44:06.092Z,4.6
2022-11-13T02:45:06.127Z,4.57
2022-11-13T02:46:06.230Z,4.53
2022-11-13T02:47:06.108Z,4.49
2022-11-13T02:48:06.137Z,4.4
2022-11-13T02:49:06.150Z,4.36
2022-11-13T02:50:06.116Z,4.34
2022-11-13T02:51:06.137Z,4.38
2022-11-13T02:52:06.191Z,4.38
2022-11-13T02:53:06.168Z,4.42
2022-11-13T02:54:11.761Z,4.43
2022-11-13T02:55:06.225Z,4.46
2022-11-13T02:56:06.124Z,4.46
2022-11-13T02:57:06.129Z,4.49
2022-11-13T02:58:06.260Z,4.46
2022-11-13T02:59:06.112Z,4.5
2022-11-13T03:00:13.947Z,4.42
2022-11-13T03:01:06.112Z,4.43
2022-11-13T03:02:06.402Z,4.49
2022-11-13T03:03:06.151Z,4.45
2022-11-13T03:04:06.134Z,4.53
2022-11-13T03:05:21.634Z,4.58
2022-11-13T03:06:06.141Z,4.58
2022-11-13T03:07:06.287Z,4.53
2022-11-13T03:08:06.145Z,4.45
2022-11-13T03:09:06.131Z,4.48
2022-11-13T03:10:06.151Z,4.46
2022-11-13T03:11:06.250Z,4.46
2022-11-13T03:12:06.138Z,4.45
2022-11-13T03:13:06.235Z,4.43
2022-11-13T03:14:06.344Z,4.34
2022-11-13T03:15:06.162Z,4.32
2022-11-13T03:16:09.287Z,4.3
2022-11-13T03:17:06.164Z,4.39
2022-11-13T03:18:06.287Z,4.38
2022-11-13T03:19:06.162Z,4.36
2022-11-13T03:20:06.182Z,4.38
2022-11-13T03:21:06.163Z,4.4
2022-11-13T03:22:06.158Z,4.36
2022-11-13T03:23:06.176Z,4.43
2022-11-13T03:24:06.148Z,4.36
2022-11-13T03:25:13.225Z,4.38
2022-11-13T03:26:06.160Z,4.39
2022-11-13T03:27:09.137Z,4.25
2022-11-13T03:28:06.195Z,4.28
2022-11-13T03:29:06.173Z,4.25
2022-11-13T03:30:06.317Z,4.3
2022-11-13T03:31:06.163Z,4.22
2022-11-13T03:32:06.161Z,4.16
2022-11-13T03:33:06.186Z,4.21
2022-11-13T03:34:06.300Z,4.21
2022-11-13T03:35:06.196Z,4.21
2022-11-13T03:36:06.174Z,4.2
2022-11-13T03:37:06.195Z,4.25
2022-11-13T03:38:09.209Z,4.22
2022-11-13T03:39:06.179Z,4.27
2022-11-13T03:40:06.185Z,4.18
2022-11-13T03:41:06.182Z,4.07
2022-11-13T03:42:06.187Z,4.21
2022-11-13T03:43:06.334Z,4.12
2022-11-13T03:44:06.198Z,4.07
2022-11-13T03:45:06.184Z,4.12
2022-11-13T03:46:06.303Z,4.06
2022-11-13T03:47:06.195Z,4.1
2022-11-13T03:48:06.213Z,4.12
2022-11-13T03:49:06.193Z,4.14
2022-11-13T03:50:06.318Z,4.06
2022-11-13T03:51:06.194Z,3.86
2022-11-13T03:52:06.227Z,3.89
2022-11-13T03:53:06.222Z,3.86
2022-11-13T03:54:09.051Z,3.96
2022-11-13T03:55:06.217Z,3.82
2022-11-13T03:56:06.206Z,3.86
2022-11-13T03:57:06.197Z,3.95
2022-11-13T03:58:06.247Z,3.85
2022-11-13T03:59:06.320Z,3.76
2022-11-13T04:00:06.205Z,3.71
2022-11-13T04:01:06.210Z,3.74
2022-11-13T04:02:06.485Z,3.78
2022-11-13T04:03:06.267Z,3.7
2022-11-13T04:04:06.220Z,3.81
2022-11-13T04:05:06.213Z,3.81
2022-11-13T04:06:06.404Z,3.82
2022-11-13T04:07:06.404Z,3.71
2022-11-13T04:08:06.262Z,3.78
2022-11-13T04:09:06.230Z,3.74
2022-11-13T04:10:06.224Z,3.55
2022-11-13T04:11:06.238Z,3.61
2022-11-13T04:12:06.232Z,3.59
2022-11-13T04:13:06.258Z,3.56
2022-11-13T04:14:06.236Z,3.48
2022-11-13T04:15:06.351Z,3.49
2022-11-13T04:16:06.251Z,3.52
2022-11-13T04:17:06.238Z,3.61
2022-11-13T04:18:06.391Z,3.56
2022-11-13T04:19:06.244Z,3.63
2022-11-13T04:20:06.245Z,3.46
2022-11-13T04:21:07.468Z,3.55
2022-11-13T04:22:06.363Z,3.46
2022-11-13T04:23:06.277Z,3.52
2022-11-13T04:24:06.246Z,3.46
2022-11-13T04:25:06.262Z,3.52
2022-11-13T04:26:09.113Z,3.58
2022-11-13T04:27:06.255Z,3.58
2022-11-13T04:28:06.278Z,3.59
2022-11-13T04:29:06.256Z,3.61
2022-11-13T04:30:06.257Z,3.55
2022-11-13T04:31:06.384Z,3.66
2022-11-13T04:32:09.312Z,3.53
2022-11-13T04:33:06.286Z,3.61
2022-11-13T04:34:06.385Z,3.52
2022-11-13T04:35:06.297Z,3.59
2022-11-13T04:36:06.265Z,3.52
2022-11-13T04:37:09.494Z,3.48
2022-11-13T04:38:06.282Z,3.43
2022-11-13T04:39:06.266Z,3.45
2022-11-13T04:40:06.279Z,3.29
2022-11-13T04:41:06.287Z,3.36
2022-11-13T04:42:06.275Z,3.33
2022-11-13T04:43:09.140Z,3.43
2022-11-13T04:44:06.277Z,3.43
2022-11-13T04:45:06.297Z,3.26
2022-11-13T04:46:06.308Z,3.3
2022-11-13T04:47:06.406Z,3.3
2022-11-13T04:48:07.952Z,3.33
2022-11-13T04:49:06.299Z,3.36
2022-11-13T04:50:06.406Z,3.34
2022-11-13T04:51:06.303Z,3.4
2022-11-13T04:52:06.294Z,3.4
2022-11-13T04:53:06.451Z,3.31
2022-11-13T04:54:09.141Z,3.34
2022-11-13T04:55:06.300Z,3.31
2022-11-13T04:56:06.297Z,3.19
2022-11-13T04:57:06.302Z,3.21
2022-11-13T04:58:06.325Z,3.22
2022-11-13T04:59:09.315Z,3.26
2022-11-13T05:00:06.580Z,3.27
2022-11-13T05:01:06.310Z,3.3
2022-11-13T05:02:06.580Z,3.12
2022-11-13T05:03:06.463Z,3.09
2022-11-13T05:04:06.397Z,3.09
2022-11-13T05:05:12.774Z,3.08
2022-11-13T05:06:06.320Z,3.09
2022-11-13T05:07:06.495Z,3.21
2022-11-13T05:08:06.354Z,3.05
2022-11-13T05:09:06.451Z,3.01
2022-11-13T05:10:06.582Z,3.01
2022-11-13T05:11:06.320Z,3.12
2022-11-13T05:12:06.325Z,3.06
2022-11-13T05:13:06.357Z,3.08
2022-11-13T05:14:08.312Z,3.08
2022-11-13T05:15:06.331Z,3.01
2022-11-13T05:16:06.337Z,3.06
2022-11-13T05:17:06.357Z,2.93
2022-11-13T05:18:06.366Z,3.08
2022-11-13T05:19:06.506Z,3.05
2022-11-13T05:20:06.351Z,3
2022-11-13T05:21:09.614Z,3.01
2022-11-13T05:22:06.350Z,3.06
2022-11-13T05:23:06.370Z,3.08
2022-11-13T05:24:06.347Z,3.13
2022-11-13T05:25:06.543Z,3.06
2022-11-13T05:26:06.344Z,3.16
2022-11-13T05:27:06.348Z,3.13
2022-11-13T05:28:06.380Z,3.09
2022-11-13T05:29:06.343Z,3.06
2022-11-13T05:30:06.384Z,3.11
2022-11-13T05:31:06.355Z,3.16
2022-11-13T05:32:09.377Z,3.06
2022-11-13T05:33:06.374Z,3.16
2022-11-13T05:34:10.476Z,3.08
2022-11-13T05:35:06.493Z,3.09
2022-11-13T05:36:06.372Z,3.09
2022-11-13T05:37:06.487Z,3.05
2022-11-13T05:38:06.414Z,3.03
2022-11-13T05:39:06.362Z,3.01
2022-11-13T05:40:06.414Z,2.9
2022-11-13T05:41:06.481Z,2.93
2022-11-13T05:42:06.374Z,2.88
2022-11-13T05:43:09.666Z,2.93
2022-11-13T05:44:06.375Z,2.98
2022-11-13T05:45:06.381Z,2.98
2022-11-13T05:46:06.373Z,3.01
2022-11-13T05:47:06.406Z,3.01
2022-11-13T05:48:06.385Z,2.91
2022-11-13T05:49:06.379Z,3
2022-11-13T05:50:06.391Z,2.97
2022-11-13T05:51:06.513Z,2.93
2022-11-13T05:52:06.413Z,3.01
2022-11-13T05:53:06.544Z,3
2022-11-13T05:54:09.331Z,2.98
2022-11-13T05:55:06.398Z,2.93
2022-11-13T05:56:06.405Z,2.94
2022-11-13T05:57:06.522Z,2.88
2022-11-13T05:58:06.407Z,3
2022-11-13T05:59:06.408Z,3.05
2022-11-13T06:00:06.403Z,2.95
2022-11-13T06:01:06.408Z,3.01
2022-11-13T06:02:06.704Z,2.94
2022-11-13T06:03:06.415Z,3.05
2022-11-13T06:04:06.406Z,2.93
2022-11-13T06:05:09.251Z,2.9
2022-11-13T06:06:06.415Z,2.83
2022-11-13T06:07:06.735Z,2.77
2022-11-13T06:08:06.404Z,2.77
2022-11-13T06:09:06.553Z,2.61
2022-11-13T06:10:06.409Z,2.65
2022-11-13T06:11:06.414Z,2.69
2022-11-13T06:12:06.458Z,2.77
2022-11-13T06:13:06.545Z,2.77
2022-11-13T06:14:06.424Z,2.73
2022-11-13T06:15:06.455Z,2.77
2022-11-13T06:16:06.411Z,2.7
2022-11-13T06:17:06.414Z,2.83
2022-11-13T06:18:06.705Z,2.82
2022-11-13T06:19:06.478Z,2.83
2022-11-13T06:20:06.419Z,2.75
2022-11-13T06:21:09.211Z,2.76
2022-11-13T06:22:06.441Z,2.68
2022-11-13T06:23:06.545Z,2.77
2022-11-13T06:24:06.431Z,2.75
2022-11-13T06:25:06.555Z,2.75
2022-11-13T06:26:06.432Z,2.83
2022-11-13T06:27:06.437Z,2.83
2022-11-13T06:28:06.436Z,2.75
2022-11-13T06:29:06.611Z,2.77
2022-11-13T06:30:06.569Z,2.83
2022-11-13T06:31:06.519Z,2.77
2022-11-13T06:32:06.457Z,2.7
2022-11-13T06:33:06.451Z,2.72
2022-11-13T06:34:06.443Z,2.72
2022-11-13T06:35:06.488Z,2.76
2022-11-13T06:36:06.606Z,2.55
2022-11-13T06:37:06.635Z,2.46
2022-11-13T06:38:06.448Z,2.59
2022-11-13T06:39:06.835Z,2.51
2022-11-13T06:40:06.475Z,2.47
2022-11-13T06:41:06.575Z,2.62
2022-11-13T06:42:06.470Z,2.52
2022-11-13T06:43:06.458Z,2.37
2022-11-13T06:44:08.015Z,2.33
2022-11-13T06:45:06.599Z,2.36
2022-11-13T06:46:06.521Z,2.46
2022-11-13T06:47:06.469Z,2.46
2022-11-13T06:48:09.232Z,2.46
2022-11-13T06:49:06.479Z,2.37
2022-11-13T06:50:06.476Z,2.52
2022-11-13T06:51:06.493Z,2.34
2022-11-13T06:52:06.474Z,2.34
2022-11-13T06:53:09.554Z,2.36
2022-11-13T06:54:06.478Z,2.51
2022-11-13T06:55:06.608Z,2.62
2022-11-13T06:56:06.484Z,2.62
2022-11-13T06:57:06.600Z,2.52
2022-11-13T06:58:06.485Z,2.32
2022-11-13T06:59:12.432Z,2.46
2022-11-13T07:00:06.491Z,2.4
2022-11-13T07:01:06.795Z,2.41
2022-11-13T07:02:06.507Z,2.55
2022-11-13T07:03:06.495Z,2.51
2022-11-13T07:04:07.996Z,2.5
2022-11-13T07:05:06.508Z,2.39
2022-11-13T07:06:06.503Z,2.58
2022-11-13T07:07:06.685Z,2.57
2022-11-13T07:08:06.505Z,2.55
2022-11-13T07:09:06.524Z,2.54
2022-11-13T07:10:09.577Z,2.51
2022-11-13T07:11:06.636Z,2.55
2022-11-13T07:12:08.356Z,2.57
2022-11-13T07:13:06.633Z,2.51
2022-11-13T07:14:06.531Z,2.62
2022-11-13T07:15:09.453Z,2.65
2022-11-13T07:16:20.620Z,2.69
2022-11-13T07:17:14.358Z,2.62
2022-11-13T07:18:06.523Z,2.58
2022-11-13T07:19:06.851Z,2.68
2022-11-13T07:20:06.573Z,2.69
2022-11-13T07:21:06.540Z,2.64
2022-11-13T07:22:06.524Z,2.7
2022-11-13T07:23:06.524Z,2.7
2022-11-13T07:24:06.594Z,2.7
2022-11-13T07:25:06.530Z,2.79
2022-11-13T07:26:09.723Z,2.88
2022-11-13T07:27:06.538Z,2.87
2022-11-13T07:28:06.561Z,2.94
2022-11-13T07:29:06.683Z,2.98
2022-11-13T07:30:08.588Z,3.05
2022-11-13T07:31:06.542Z,3.16
2022-11-13T07:32:06.667Z,3.29
2022-11-13T07:33:06.557Z,3.31
2022-11-13T07:34:06.561Z,3.29
2022-11-13T07:35:06.536Z,3.4
2022-11-13T07:36:06.543Z,3.37
2022-11-13T07:37:09.569Z,3.55
2022-11-13T07:38:06.553Z,3.66
2022-11-13T07:39:06.566Z,3.82
2022-11-13T07:40:06.557Z,4.02
2022-11-13T07:41:06.571Z,4.21
2022-11-13T07:42:06.673Z,4.43
2022-11-13T07:43:06.551Z,4.75
2022-11-13T07:44:18.423Z,4.98
2022-11-13T07:45:06.612Z,5.1
2022-11-13T07:46:06.572Z,5.34
2022-11-13T07:47:06.640Z,5.59
2022-11-13T07:48:09.469Z,5.72
2022-11-13T07:49:06.557Z,5.49
2022-11-13T07:50:13.449Z,5.34
2022-11-13T07:51:06.578Z,5.49
2022-11-13T07:52:06.672Z,5.72
2022-11-13T07:53:06.569Z,5.9
2022-11-13T07:54:06.598Z,5.88
2022-11-13T07:55:06.585Z,5.88
2022-11-13T07:56:06.616Z,5.99
2022-11-13T07:57:09.766Z,5.97
2022-11-13T07:58:06.592Z,6.12
2022-11-13T07:59:07.657Z,6.01
2022-11-13T08:00:06.718Z,6.1
2022-11-13T08:01:06.833Z,5.98
2022-11-13T08:02:06.596Z,6.02
2022-11-13T08:03:06.769Z,5.95
2022-11-13T08:04:06.730Z,5.95
2022-11-13T08:05:06.622Z,5.62
2022-11-13T08:06:06.625Z,5.74
2022-11-13T08:07:06.916Z,5.73
2022-11-13T08:08:06.645Z,5.74
2022-11-13T08:09:06.601Z,5.46
2022-11-13T08:10:09.510Z,5.4
2022-11-13T08:11:06.602Z,5.52
2022-11-13T08:12:06.602Z,5.29
2022-11-13T08:13:06.763Z,5.41
2022-11-13T08:14:07.697Z,5.33
2022-11-13T08:15:13.331Z,5.38
2022-11-13T08:16:06.618Z,5.34
2022-11-13T08:17:06.624Z,5.31
2022-11-13T08:18:06.618Z,5.33
2022-11-13T08:19:06.617Z,5.29
2022-11-13T08:20:06.786Z,5.2
2022-11-13T08:21:15.770Z,5.33
2022-11-13T08:22:06.615Z,5.2
2022-11-13T08:23:06.616Z,5.2
2022-11-13T08:24:06.620Z,5.22
2022-11-13T08:25:06.652Z,5.16
2022-11-13T08:26:06.641Z,5.18
2022-11-13T08:27:06.622Z,5.18
2022-11-13T08:28:13.380Z,5.19
2022-11-13T08:29:06.753Z,5.15
2022-11-13T08:30:06.649Z,5.13
2022-11-13T08:31:06.747Z,5.15
2022-11-13T08:32:09.491Z,5.23
2022-11-13T08:33:06.632Z,5.26
2022-11-13T08:34:06.641Z,5.2
2022-11-13T08:35:06.657Z,5.23
2022-11-13T08:36:06.771Z,5.13
2022-11-13T08:37:06.639Z,5.37
2022-11-13T08:38:06.644Z,5.26
2022-11-13T08:39:06.645Z,5.26
2022-11-13T08:40:06.660Z,5.31
2022-11-13T08:41:13.227Z,5.26
2022-11-13T08:42:06.650Z,5.25
2022-11-13T08:43:06.639Z,5.2
2022-11-13T08:44:06.648Z,5.07
2022-11-13T08:45:06.788Z,5.07
2022-11-13T08:46:06.661Z,5.04
2022-11-13T08:47:06.807Z,5.01
2022-11-13T08:48:06.655Z,5.01
2022-11-13T08:49:06.671Z,5.05
2022-11-13T08:50:06.682Z,5.12
2022-11-13T08:51:06.664Z,4.94
2022-11-13T08:52:06.795Z,4.98
2022-11-13T08:53:06.662Z,5.01
2022-11-13T08:54:06.666Z,5.1
2022-11-13T08:55:06.700Z,5.02
2022-11-13T08:56:06.702Z,5.01
2022-11-13T08:57:10.638Z,5.07
2022-11-13T08:58:06.675Z,5.12
2022-11-13T08:59:06.677Z,5.04
2022-11-13T09:00:06.705Z,5.13
2022-11-13T09:01:06.861Z,5.16
2022-11-13T09:02:06.694Z,5.18
2022-11-13T09:03:06.864Z,5.22
2022-11-13T09:04:06.973Z,5.33
2022-11-13T09:05:06.729Z,5.38
2022-11-13T09:06:06.679Z,5.47
2022-11-13T09:07:06.867Z,5.56
2022-11-13T09:08:06.820Z,5.49
2022-11-13T09:09:06.687Z,5.51
2022-11-13T09:10:06.747Z,5.56
2022-11-13T09:11:06.771Z,5.51
2022-11-13T09:12:06.695Z,5.59
2022-11-13T09:13:06.704Z,5.73
2022-11-13T09:14:06.855Z,5.76
2022-11-13T09:15:09.582Z,5.88
2022-11-13T09:16:06.697Z,5.84
2022-11-13T09:17:06.824Z,5.91
2022-11-13T09:18:06.701Z,5.92
2022-11-13T09:19:06.821Z,5.94
2022-11-13T09:20:16.291Z,6.05
2022-11-13T09:21:06.699Z,6.01
2022-11-13T09:22:06.866Z,6.05
2022-11-13T09:23:06.719Z,6.07
2022-11-13T09:24:06.841Z,6.2
2022-11-13T09:25:06.735Z,6.25
2022-11-13T09:26:09.818Z,6.25
2022-11-13T09:27:06.958Z,6.2
2022-11-13T09:28:06.776Z,6.2
2022-11-13T09:29:06.710Z,6.32
2022-11-13T09:30:06.786Z,6.47
2022-11-13T09:31:09.827Z,6.53
2022-11-13T09:32:06.724Z,6.59
2022-11-13T09:33:06.849Z,6.6
2022-11-13T09:34:06.739Z,6.68
2022-11-13T09:35:06.887Z,6.75
2022-11-13T09:36:06.726Z,6.75
2022-11-13T09:37:09.554Z,6.82
2022-11-13T09:38:15.433Z,6.86
2022-11-13T09:39:06.741Z,6.9
2022-11-13T09:40:06.874Z,6.93
2022-11-13T09:41:06.760Z,6.93
2022-11-13T09:42:07.964Z,6.92
2022-11-13T09:43:06.733Z,6.95
2022-11-13T09:44:06.752Z,6.96
2022-11-13T09:45:06.804Z,6.92
2022-11-13T09:46:06.743Z,6.83
2022-11-13T09:47:06.754Z,6.78
2022-11-13T09:48:06.745Z,6.96
2022-11-13T09:49:06.871Z,7.01
2022-11-13T09:50:06.773Z,7.03
2022-11-13T09:51:06.871Z,7.11
2022-11-13T09:52:11.101Z,7.15
2022-11-13T09:53:09.766Z,7.21
2022-11-13T09:54:06.805Z,7.28
2022-11-13T09:55:06.792Z,7.4
2022-11-13T09:56:06.931Z,7.56
2022-11-13T09:57:06.753Z,7.62
2022-11-13T09:58:06.766Z,7.59
2022-11-13T09:59:06.757Z,7.51
2022-11-13T10:00:06.780Z,7.58
2022-11-13T10:01:07.001Z,7.61
2022-11-13T10:02:06.823Z,7.72
2022-11-13T10:03:06.775Z,7.81
2022-11-13T10:04:15.516Z,8.01
2022-11-13T10:05:06.619Z,7.85
2022-11-13T10:06:06.857Z,7.93
2022-11-13T10:07:07.262Z,8.06
2022-11-13T10:08:06.761Z,8.08
2022-11-13T10:09:06.777Z,8.01
2022-11-13T10:10:06.794Z,8.17
2022-11-13T10:11:06.765Z,8.28
2022-11-13T10:12:06.918Z,8.26
2022-11-13T10:13:06.800Z,8.21
2022-11-13T10:14:06.776Z,8.32
2022-11-13T10:15:10.081Z,8.38
2022-11-13T10:16:06.796Z,8.36
2022-11-13T10:17:06.887Z,8.38
2022-11-13T10:18:06.790Z,8.27
2022-11-13T10:19:06.786Z,8.36
2022-11-13T10:20:06.970Z,8.42
2022-11-13T10:21:15.884Z,8.41
2022-11-13T10:22:37.150Z,8.44
2022-11-13T10:23:06.798Z,8.44
2022-11-13T10:24:10.483Z,8.5
2022-11-13T10:25:06.826Z,8.74
2022-11-13T10:26:09.576Z,8.86
2022-11-13T10:27:06.842Z,8.78
2022-11-13T10:28:51.621Z,8.89
2022-11-13T10:29:07.081Z,8.87
2022-11-13T10:30:06.904Z,8.95
2022-11-13T10:31:06.808Z,9.26
2022-11-13T10:32:06.802Z,9.47
2022-11-13T10:33:06.800Z,9.45
2022-11-13T10:34:06.803Z,9.47
2022-11-13T10:35:06.829Z,9.52
2022-11-13T10:36:06.911Z,9.45
2022-11-13T10:37:09.648Z,9.48
2022-11-13T10:38:12.948Z,9.55
2022-11-13T10:39:06.818Z,9.59
2022-11-13T10:40:06.867Z,9.63
2022-11-13T10:41:06.820Z,9.56
2022-11-13T10:42:06.991Z,9.8
2022-11-13T10:43:06.836Z,9.8
2022-11-13T10:44:06.976Z,9.73
2022-11-13T10:45:13.309Z,9.73
2022-11-13T10:46:07.017Z,9.74
2022-11-13T10:47:06.869Z,9.77
2022-11-13T10:48:09.875Z,9.85
2022-11-13T10:49:06.836Z,9.77
2022-11-13T10:50:06.878Z,9.73
2022-11-13T10:51:06.883Z,9.84
2022-11-13T10:52:13.262Z,9.85
2022-11-13T10:53:06.856Z,9.91
2022-11-13T10:54:06.958Z,10.07
2022-11-13T10:55:06.861Z,10.13
2022-11-13T10:56:06.827Z,9.99
2022-11-13T10:57:06.837Z,10.07
2022-11-13T10:58:06.900Z,10.25
2022-11-13T10:59:10.545Z,10.2
2022-11-13T11:00:07.100Z,10.21
2022-11-13T11:01:07.098Z,10.39
2022-11-13T11:02:06.844Z,10.25
2022-11-13T11:03:06.881Z,10.27
2022-11-13T11:04:06.851Z,10.28
2022-11-13T11:05:06.950Z,10.27
2022-11-13T11:06:06.858Z,10.31
2022-11-13T11:07:25.110Z,10.36
2022-11-13T11:08:07.251Z,10.28
2022-11-13T11:09:06.869Z,10.36
2022-11-13T11:10:06.916Z,10.34
2022-11-13T11:11:06.852Z,10.39
2022-11-13T11:12:06.856Z,10.43
2022-11-13T11:13:06.852Z,10.49
2022-11-13T11:14:06.868Z,10.33
2022-11-13T11:15:06.876Z,10.38
2022-11-13T11:16:06.973Z,10.53
2022-11-13T11:17:06.873Z,10.51
2022-11-13T11:18:06.937Z,10.57
2022-11-13T11:19:07.314Z,10.58
2022-11-13T11:20:06.920Z,10.71
2022-11-13T11:21:06.888Z,10.76
2022-11-13T11:22:06.905Z,10.86
2022-11-13T11:23:06.925Z,10.89
2022-11-13T11:24:07.044Z,11.05
2022-11-13T11:25:06.942Z,11.04
2022-11-13T11:26:07.002Z,11.27
2022-11-13T11:27:06.962Z,11.44
2022-11-13T11:28:06.912Z,11.45
2022-11-13T11:29:06.900Z,11.49
2022-11-13T11:30:07.012Z,11.38
2022-11-13T11:31:06.940Z,11.52
2022-11-13T11:32:07.063Z,11.49
2022-11-13T11:33:06.884Z,11.37
2022-11-13T11:34:06.891Z,11.48
2022-11-13T11:35:06.924Z,11.51
2022-11-13T11:36:06.943Z,11.49
2022-11-13T11:37:06.895Z,11.38
2022-11-13T11:38:06.896Z,11.4
2022-11-13T11:39:06.903Z,11.31
2022-11-13T11:40:07.060Z,11.37
2022-11-13T11:41:08.200Z,11.45
2022-11-13T11:42:10.036Z,11.38
2022-11-13T11:43:06.904Z,11.33
2022-11-13T11:44:06.904Z,11.4
2022-11-13T11:45:06.928Z,11.43
2022-11-13T11:46:06.971Z,11.38
2022-11-13T11:47:06.981Z,11.44
2022-11-13T11:48:07.024Z,11.45
2022-11-13T11:49:06.933Z,11.49
2022-11-13T11:50:06.950Z,11.43
2022-11-13T11:51:06.941Z,11.49
2022-11-13T11:52:07.038Z,11.48
2022-11-13T11:53:09.705Z,11.51
2022-11-13T11:54:09.690Z,11.52
2022-11-13T11:55:06.956Z,11.52
2022-11-13T11:56:07.043Z,11.53
2022-11-13T11:57:06.942Z,11.63
2022-11-13T11:58:09.807Z,11.59
2022-11-13T11:59:06.933Z,11.59
2022-11-13T12:00:06.960Z,11.63
2022-11-13T12:01:06.961Z,11.65
2022-11-13T12:02:06.936Z,11.7
2022-11-13T12:03:06.950Z,11.76
2022-11-13T12:04:09.847Z,11.85
2022-11-13T12:05:07.227Z,11.8
2022-11-13T12:06:06.964Z,11.95
2022-11-13T12:07:07.168Z,11.89
2022-11-13T12:08:06.942Z,11.89
2022-11-13T12:09:08.034Z,12.02
2022-11-13T12:10:06.809Z,11.99
2022-11-13T12:11:06.990Z,12.08
2022-11-13T12:12:07.075Z,12.11
2022-11-13T12:13:06.953Z,12.35
2022-11-13T12:14:07.074Z,12.26
2022-11-13T12:15:10.582Z,12.39
2022-11-13T12:16:06.958Z,12.35
2022-11-13T12:17:18.400Z,12.3
2022-11-13T12:18:06.954Z,12.4
2022-11-13T12:19:06.975Z,12.4
2022-11-13T12:20:10.305Z,12.51
2022-11-13T12:21:06.980Z,12.35
2022-11-13T12:22:07.074Z,12.66
2022-11-13T12:23:06.976Z,12.55
2022-11-13T12:24:06.986Z,12.61
2022-11-13T12:25:06.971Z,12.61
2022-11-13T12:26:15.850Z,12.57
2022-11-13T12:27:06.973Z,12.54
2022-11-13T12:28:07.107Z,12.62
2022-11-13T12:29:06.976Z,12.7
2022-11-13T12:30:07.104Z,12.57
2022-11-13T12:31:10.143Z,12.66
2022-11-13T12:32:06.991Z,12.72
2022-11-13T12:33:06.982Z,12.76
2022-11-13T12:34:07.000Z,12.69
2022-11-13T12:35:06.990Z,12.73
2022-11-13T12:36:07.140Z,12.83
2022-11-13T12:37:07.014Z,12.8
2022-11-13T12:38:07.002Z,12.76
2022-11-13T12:39:06.992Z,12.84
2022-11-13T12:40:06.996Z,12.83
2022-11-13T12:41:07.055Z,12.81
2022-11-13T12:42:09.853Z,12.8
2022-11-13T12:43:06.995Z,12.84
2022-11-13T12:44:07.120Z,12.8
2022-11-13T12:45:06.998Z,12.87
2022-11-13T12:46:07.161Z,12.87
2022-11-13T12:47:07.021Z,12.93
2022-11-13T12:48:07.585Z,12.95
2022-11-13T12:49:07.541Z,13.01
2022-11-13T12:50:07.076Z,13.05
2022-11-13T12:51:07.203Z,13.05
2022-11-13T12:52:07.132Z,13.11
2022-11-13T12:53:09.904Z,13.05
2022-11-13T12:54:07.203Z,13.09
2022-11-13T12:55:07.281Z,13.12
2022-11-13T12:56:07.045Z,13.17
2022-11-13T12:57:06.859Z,13.16
2022-11-13T12:58:07.022Z,13.08
2022-11-13T12:59:34.945Z,13.17
2022-11-13T13:00:07.198Z,13.16
2022-11-13T13:01:07.294Z,13.27
2022-11-13T13:02:07.707Z,13.2
2022-11-13T13:03:07.031Z,13.21
2022-11-13T13:04:10.150Z,13.3
2022-11-13T13:05:07.264Z,13.28
2022-11-13T13:06:07.070Z,13.37
2022-11-13T13:07:07.272Z,13.45
2022-11-13T13:08:10.148Z,13.5
2022-11-13T13:09:07.142Z,13.52
2022-11-13T13:10:07.999Z,13.57
2022-11-13T13:11:07.354Z,13.64
2022-11-13T13:12:07.042Z,13.67
2022-11-13T13:13:07.243Z,13.67
2022-11-13T13:14:07.048Z,13.75
2022-11-13T13:15:10.058Z,13.75
2022-11-13T13:16:07.988Z,13.8